sensor_id;sensor_type;location;lat;lon;timestamp;P1;durP1;ratioP1;P2;durP2;ratioP2
13083;SDS011;6608;48.790;9.198;2023-07-16T00:00:43;84.83;;;58.03;;
13083;SDS011;6608;48.790;9.198;2023-07-16T00:03:09;86.50;;;58.00;;
13083;SDS011;6608;48.790;9.198;2023-07-16T00:05:36;81.90;;;57.73;;
13083;SDS011;6608;48.790;9.198;2023-07-16T00:08:02;81.77;;;57.57;;
13083;SDS011;6608;48.790;9.198;2023-07-16T00:10:29;83.57;;;57.77;;
13083;SDS011;6608;48.790;9.198;2023-07-16T00:12:55;82.27;;;57.53;;
13083;SDS011;6608;48.790;9.198;2023-07-16T00:15:22;89.90;;;59.00;;
13083;SDS011;6608;48.790;9.198;2023-07-16T00:17:50;90.10;;;58.40;;
13083;SDS011;6608;48.790;9.198;2023-07-16T00:20:16;82.77;;;57.70;;
13083;SDS011;6608;48.790;9.198;2023-07-16T00:22:43;87.10;;;58.17;;
13083;SDS011;6608;48.790;9.198;2023-07-16T00:25:09;88.83;;;59.03;;
13083;SDS011;6608;48.790;9.198;2023-07-16T00:27:36;82.57;;;57.50;;
13083;SDS011;6608;48.790;9.198;2023-07-16T00:30:02;80.83;;;57.70;;
13083;SDS011;6608;48.790;9.198;2023-07-16T00:32:29;79.80;;;57.27;;
13083;SDS011;6608;48.790;9.198;2023-07-16T00:34:57;80.30;;;57.20;;
13083;SDS011;6608;48.790;9.198;2023-07-16T00:37:23;83.63;;;57.23;;
13083;SDS011;6608;48.790;9.198;2023-07-16T00:39:50;81.37;;;57.63;;
13083;SDS011;6608;48.790;9.198;2023-07-16T00:42:16;80.67;;;57.23;;
13083;SDS011;6608;48.790;9.198;2023-07-16T00:44:43;79.87;;;57.07;;
13083;SDS011;6608;48.790;9.198;2023-07-16T00:47:09;80.93;;;57.17;;
13083;SDS011;6608;48.790;9.198;2023-07-16T00:49:36;82.93;;;57.63;;
13083;SDS011;6608;48.790;9.198;2023-07-16T00:52:05;79.93;;;57.03;;
13083;SDS011;6608;48.790;9.198;2023-07-16T00:54:31;82.67;;;58.37;;
13083;SDS011;6608;48.790;9.198;2023-07-16T00:56:58;82.33;;;57.43;;
13083;SDS011;6608;48.790;9.198;2023-07-16T00:59:24;90.07;;;58.33;;
13083;SDS011;6608;48.790;9.198;2023-07-16T01:01:51;88.33;;;58.50;;
13083;SDS011;6608;48.790;9.198;2023-07-16T01:04:17;81.63;;;57.27;;
13083;SDS011;6608;48.790;9.198;2023-07-16T01:06:45;82.53;;;57.20;;
13083;SDS011;6608;48.790;9.198;2023-07-16T01:09:15;84.33;;;57.53;;
13083;SDS011;6608;48.790;9.198;2023-07-16T01:11:41;86.43;;;58.57;;
13083;SDS011;6608;48.790;9.198;2023-07-16T01:14:08;89.97;;;59.20;;
13083;SDS011;6608;48.790;9.198;2023-07-16T01:16:34;87.07;;;58.17;;
13083;SDS011;6608;48.790;9.198;2023-07-16T01:19:01;84.07;;;57.83;;
13083;SDS011;6608;48.790;9.198;2023-07-16T01:21:29;80.60;;;57.10;;
13083;SDS011;6608;48.790;9.198;2023-07-16T01:24:02;82.83;;;57.40;;
13083;SDS011;6608;48.790;9.198;2023-07-16T01:26:35;84.67;;;57.87;;
13083;SDS011;6608;48.790;9.198;2023-07-16T01:29:09;87.57;;;57.93;;
13083;SDS011;6608;48.790;9.198;2023-07-16T01:31:36;88.67;;;58.40;;
13083;SDS011;6608;48.790;9.198;2023-07-16T01:34:03;81.10;;;57.00;;
13083;SDS011;6608;48.790;9.198;2023-07-16T01:36:31;83.20;;;57.33;;
13083;SDS011;6608;48.790;9.198;2023-07-16T01:38:57;80.33;;;57.17;;
13083;SDS011;6608;48.790;9.198;2023-07-16T01:41:24;79.43;;;56.93;;
13083;SDS011;6608;48.790;9.198;2023-07-16T01:43:51;82.10;;;57.20;;
13083;SDS011;6608;48.790;9.198;2023-07-16T01:46:18;82.37;;;57.77;;
13083;SDS011;6608;48.790;9.198;2023-07-16T01:48:45;84.53;;;57.20;;
13083;SDS011;6608;48.790;9.198;2023-07-16T01:51:11;81.77;;;57.33;;
13083;SDS011;6608;48.790;9.198;2023-07-16T01:53:39;88.33;;;57.70;;
13083;SDS011;6608;48.790;9.198;2023-07-16T01:56:05;86.67;;;57.60;;
13083;SDS011;6608;48.790;9.198;2023-07-16T01:58:32;87.00;;;57.80;;
13083;SDS011;6608;48.790;9.198;2023-07-16T02:00:58;81.90;;;56.90;;
13083;SDS011;6608;48.790;9.198;2023-07-16T02:03:26;82.43;;;57.70;;
13083;SDS011;6608;48.790;9.198;2023-07-16T02:05:52;83.03;;;57.20;;
13083;SDS011;6608;48.790;9.198;2023-07-16T02:08:19;87.20;;;57.80;;
13083;SDS011;6608;48.790;9.198;2023-07-16T02:10:46;85.77;;;57.37;;
13083;SDS011;6608;48.790;9.198;2023-07-16T02:13:13;89.23;;;58.07;;
13083;SDS011;6608;48.790;9.198;2023-07-16T02:15:39;82.47;;;57.07;;
13083;SDS011;6608;48.790;9.198;2023-07-16T02:18:06;81.87;;;56.90;;
13083;SDS011;6608;48.790;9.198;2023-07-16T02:20:34;82.93;;;56.90;;
13083;SDS011;6608;48.790;9.198;2023-07-16T02:23:00;81.67;;;56.70;;
13083;SDS011;6608;48.790;9.198;2023-07-16T02:25:27;82.83;;;57.17;;
13083;SDS011;6608;48.790;9.198;2023-07-16T02:27:53;88.33;;;57.93;;
13083;SDS011;6608;48.790;9.198;2023-07-16T02:30:19;87.10;;;57.80;;
13083;SDS011;6608;48.790;9.198;2023-07-16T02:32:46;82.90;;;57.33;;
13083;SDS011;6608;48.790;9.198;2023-07-16T02:35:12;88.40;;;58.43;;
13083;SDS011;6608;48.790;9.198;2023-07-16T02:37:40;86.53;;;57.37;;
13083;SDS011;6608;48.790;9.198;2023-07-16T02:40:07;85.60;;;57.30;;
13083;SDS011;6608;48.790;9.198;2023-07-16T02:42:34;84.23;;;58.63;;
13083;SDS011;6608;48.790;9.198;2023-07-16T02:45:00;82.37;;;57.60;;
13083;SDS011;6608;48.790;9.198;2023-07-16T02:47:27;83.53;;;57.80;;
13083;SDS011;6608;48.790;9.198;2023-07-16T02:49:53;80.93;;;56.70;;
13083;SDS011;6608;48.790;9.198;2023-07-16T02:52:19;81.07;;;56.77;;
13083;SDS011;6608;48.790;9.198;2023-07-16T02:54:47;81.77;;;56.87;;
13083;SDS011;6608;48.790;9.198;2023-07-16T02:57:14;82.93;;;57.40;;
13083;SDS011;6608;48.790;9.198;2023-07-16T02:59:40;85.70;;;57.90;;
13083;SDS011;6608;48.790;9.198;2023-07-16T03:02:07;88.90;;;58.10;;
13083;SDS011;6608;48.790;9.198;2023-07-16T03:04:33;87.03;;;57.57;;
13083;SDS011;6608;48.790;9.198;2023-07-16T03:06:59;85.27;;;57.47;;
13083;SDS011;6608;48.790;9.198;2023-07-16T03:09:26;86.80;;;57.60;;
13083;SDS011;6608;48.790;9.198;2023-07-16T03:11:54;82.20;;;56.47;;
13083;SDS011;6608;48.790;9.198;2023-07-16T03:14:20;84.93;;;57.87;;
13083;SDS011;6608;48.790;9.198;2023-07-16T03:16:47;87.80;;;57.83;;
13083;SDS011;6608;48.790;9.198;2023-07-16T03:19:13;87.47;;;57.47;;
13083;SDS011;6608;48.790;9.198;2023-07-16T03:21:39;87.20;;;57.63;;
13083;SDS011;6608;48.790;9.198;2023-07-16T03:24:06;81.63;;;56.90;;
13083;SDS011;6608;48.790;9.198;2023-07-16T03:26:32;80.73;;;57.07;;
13083;SDS011;6608;48.790;9.198;2023-07-16T03:29:00;80.30;;;56.67;;
13083;SDS011;6608;48.790;9.198;2023-07-16T03:31:27;80.53;;;56.33;;
13083;SDS011;6608;48.790;9.198;2023-07-16T03:33:53;80.53;;;56.57;;
13083;SDS011;6608;48.790;9.198;2023-07-16T03:36:19;82.23;;;57.20;;
13083;SDS011;6608;48.790;9.198;2023-07-16T03:38:46;80.27;;;56.60;;
13083;SDS011;6608;48.790;9.198;2023-07-16T03:41:12;81.50;;;56.70;;
13083;SDS011;6608;48.790;9.198;2023-07-16T03:43:39;80.70;;;56.50;;
13083;SDS011;6608;48.790;9.198;2023-07-16T03:46:07;86.07;;;56.73;;
13083;SDS011;6608;48.790;9.198;2023-07-16T03:48:33;84.50;;;57.50;;
13083;SDS011;6608;48.790;9.198;2023-07-16T03:51:00;82.43;;;56.83;;
13083;SDS011;6608;48.790;9.198;2023-07-16T03:53:26;81.53;;;56.70;;
13083;SDS011;6608;48.790;9.198;2023-07-16T03:55:53;85.13;;;56.60;;
13083;SDS011;6608;48.790;9.198;2023-07-16T03:58:19;85.90;;;57.60;;
13083;SDS011;6608;48.790;9.198;2023-07-16T04:00:45;84.77;;;57.13;;
13083;SDS011;6608;48.790;9.198;2023-07-16T04:03:13;89.87;;;57.43;;
13083;SDS011;6608;48.790;9.198;2023-07-16T04:05:40;85.97;;;57.53;;
13083;SDS011;6608;48.790;9.198;2023-07-16T04:08:06;84.63;;;57.30;;
13083;SDS011;6608;48.790;9.198;2023-07-16T04:10:33;92.83;;;58.53;;
13083;SDS011;6608;48.790;9.198;2023-07-16T04:13:00;88.73;;;57.80;;
13083;SDS011;6608;48.790;9.198;2023-07-16T04:15:26;85.40;;;57.77;;
13083;SDS011;6608;48.790;9.198;2023-07-16T04:17:52;82.30;;;56.67;;
13083;SDS011;6608;48.790;9.198;2023-07-16T04:20:20;84.90;;;57.10;;
13083;SDS011;6608;48.790;9.198;2023-07-16T04:22:47;83.67;;;57.67;;
13083;SDS011;6608;48.790;9.198;2023-07-16T04:25:13;85.90;;;57.37;;
13083;SDS011;6608;48.790;9.198;2023-07-16T04:27:41;88.97;;;57.83;;
13083;SDS011;6608;48.790;9.198;2023-07-16T04:30:09;79.70;;;56.13;;
13083;SDS011;6608;48.790;9.198;2023-07-16T04:32:35;80.07;;;56.73;;
13083;SDS011;6608;48.790;9.198;2023-07-16T04:35:02;81.50;;;57.13;;
13083;SDS011;6608;48.790;9.198;2023-07-16T04:37:29;78.87;;;56.27;;
13083;SDS011;6608;48.790;9.198;2023-07-16T04:39:56;80.67;;;56.60;;
13083;SDS011;6608;48.790;9.198;2023-07-16T04:42:22;80.37;;;57.13;;
13083;SDS011;6608;48.790;9.198;2023-07-16T04:44:49;80.33;;;56.33;;
13083;SDS011;6608;48.790;9.198;2023-07-16T04:47:15;81.80;;;56.53;;
13083;SDS011;6608;48.790;9.198;2023-07-16T04:49:42;84.87;;;56.97;;
13083;SDS011;6608;48.790;9.198;2023-07-16T04:52:08;85.47;;;56.97;;
13083;SDS011;6608;48.790;9.198;2023-07-16T04:54:37;85.20;;;57.27;;
13083;SDS011;6608;48.790;9.198;2023-07-16T04:57:05;86.53;;;57.80;;
13083;SDS011;6608;48.790;9.198;2023-07-16T04:59:32;84.03;;;57.13;;
13083;SDS011;6608;48.790;9.198;2023-07-16T05:01:58;90.17;;;57.60;;
13083;SDS011;6608;48.790;9.198;2023-07-16T05:04:25;81.63;;;57.07;;
13083;SDS011;6608;48.790;9.198;2023-07-16T05:06:51;81.17;;;57.00;;
13083;SDS011;6608;48.790;9.198;2023-07-16T05:09:17;81.40;;;57.03;;
13083;SDS011;6608;48.790;9.198;2023-07-16T05:11:46;85.80;;;56.90;;
13083;SDS011;6608;48.790;9.198;2023-07-16T05:14:13;82.07;;;57.57;;
13083;SDS011;6608;48.790;9.198;2023-07-16T05:16:39;81.97;;;57.00;;
13083;SDS011;6608;48.790;9.198;2023-07-16T05:19:06;83.63;;;57.10;;
13083;SDS011;6608;48.790;9.198;2023-07-16T05:21:32;90.13;;;57.90;;
13083;SDS011;6608;48.790;9.198;2023-07-16T05:23:59;88.67;;;58.60;;
13083;SDS011;6608;48.790;9.198;2023-07-16T05:26:25;88.20;;;57.27;;
13083;SDS011;6608;48.790;9.198;2023-07-16T05:28:53;89.30;;;57.60;;
13083;SDS011;6608;48.790;9.198;2023-07-16T05:31:19;81.17;;;56.57;;
13083;SDS011;6608;48.790;9.198;2023-07-16T05:33:46;81.30;;;56.53;;
13083;SDS011;6608;48.790;9.198;2023-07-16T05:36:12;80.37;;;56.40;;
13083;SDS011;6608;48.790;9.198;2023-07-16T05:38:38;81.63;;;56.83;;
13083;SDS011;6608;48.790;9.198;2023-07-16T05:41:05;80.13;;;56.53;;
13083;SDS011;6608;48.790;9.198;2023-07-16T05:43:32;81.60;;;57.13;;
13083;SDS011;6608;48.790;9.198;2023-07-16T05:46:01;82.53;;;57.53;;
13083;SDS011;6608;48.790;9.198;2023-07-16T05:48:27;80.67;;;56.83;;
13083;SDS011;6608;48.790;9.198;2023-07-16T05:50:53;86.03;;;57.80;;
13083;SDS011;6608;48.790;9.198;2023-07-16T05:53:20;79.73;;;56.40;;
13083;SDS011;6608;48.790;9.198;2023-07-16T05:55:46;80.30;;;57.03;;
13083;SDS011;6608;48.790;9.198;2023-07-16T05:58:14;81.93;;;57.87;;
13083;SDS011;6608;48.790;9.198;2023-07-16T06:00:41;80.37;;;56.53;;
13083;SDS011;6608;48.790;9.198;2023-07-16T06:03:08;84.03;;;57.37;;
13083;SDS011;6608;48.790;9.198;2023-07-16T06:05:35;81.67;;;57.23;;
13083;SDS011;6608;48.790;9.198;2023-07-16T06:08:02;85.60;;;56.93;;
13083;SDS011;6608;48.790;9.198;2023-07-16T06:10:28;83.10;;;57.27;;
13083;SDS011;6608;48.790;9.198;2023-07-16T06:12:55;81.03;;;56.80;;
13083;SDS011;6608;48.790;9.198;2023-07-16T06:15:21;89.73;;;58.23;;
13083;SDS011;6608;48.790;9.198;2023-07-16T06:17:48;85.63;;;57.10;;
13083;SDS011;6608;48.790;9.198;2023-07-16T06:20:16;88.73;;;58.00;;
13083;SDS011;6608;48.790;9.198;2023-07-16T06:22:42;90.77;;;59.33;;
13083;SDS011;6608;48.790;9.198;2023-07-16T06:25:09;81.37;;;56.37;;
13083;SDS011;6608;48.790;9.198;2023-07-16T06:27:36;83.57;;;56.87;;
13083;SDS011;6608;48.790;9.198;2023-07-16T06:30:02;80.93;;;56.73;;
13083;SDS011;6608;48.790;9.198;2023-07-16T06:32:30;85.53;;;57.10;;
13083;SDS011;6608;48.790;9.198;2023-07-16T06:34:57;83.63;;;56.80;;
13083;SDS011;6608;48.790;9.198;2023-07-16T06:37:25;84.80;;;56.80;;
13083;SDS011;6608;48.790;9.198;2023-07-16T06:39:51;83.60;;;57.23;;
13083;SDS011;6608;48.790;9.198;2023-07-16T06:42:18;89.87;;;57.50;;
13083;SDS011;6608;48.790;9.198;2023-07-16T06:44:44;90.80;;;58.27;;
13083;SDS011;6608;48.790;9.198;2023-07-16T06:47:11;87.97;;;57.93;;
13083;SDS011;6608;48.790;9.198;2023-07-16T06:49:38;92.43;;;58.37;;
13083;SDS011;6608;48.790;9.198;2023-07-16T06:52:05;82.37;;;57.03;;
13083;SDS011;6608;48.790;9.198;2023-07-16T06:54:33;85.40;;;57.23;;
13083;SDS011;6608;48.790;9.198;2023-07-16T06:56:59;86.77;;;57.33;;
13083;SDS011;6608;48.790;9.198;2023-07-16T06:59:26;89.03;;;57.80;;
13083;SDS011;6608;48.790;9.198;2023-07-16T07:01:52;96.60;;;58.63;;
13083;SDS011;6608;48.790;9.198;2023-07-16T07:04:18;85.83;;;57.73;;
13083;SDS011;6608;48.790;9.198;2023-07-16T07:06:45;82.73;;;56.90;;
13083;SDS011;6608;48.790;9.198;2023-07-16T07:09:11;81.97;;;57.30;;
13083;SDS011;6608;48.790;9.198;2023-07-16T07:11:39;85.17;;;58.00;;
13083;SDS011;6608;48.790;9.198;2023-07-16T07:14:06;86.13;;;57.63;;
13083;SDS011;6608;48.790;9.198;2023-07-16T07:16:32;92.17;;;58.13;;
13083;SDS011;6608;48.790;9.198;2023-07-16T07:18:58;94.47;;;58.93;;
13083;SDS011;6608;48.790;9.198;2023-07-16T07:21:25;91.87;;;58.83;;
13083;SDS011;6608;48.790;9.198;2023-07-16T07:23:51;84.63;;;57.17;;
13083;SDS011;6608;48.790;9.198;2023-07-16T07:26:18;87.27;;;58.53;;
13083;SDS011;6608;48.790;9.198;2023-07-16T07:28:46;84.87;;;57.70;;
13083;SDS011;6608;48.790;9.198;2023-07-16T07:31:12;89.83;;;58.17;;
13083;SDS011;6608;48.790;9.198;2023-07-16T07:33:38;85.37;;;57.83;;
13083;SDS011;6608;48.790;9.198;2023-07-16T07:36:05;90.57;;;58.00;;
13083;SDS011;6608;48.790;9.198;2023-07-16T07:38:31;89.70;;;58.23;;
13083;SDS011;6608;48.790;9.198;2023-07-16T07:40:58;88.57;;;58.07;;
13083;SDS011;6608;48.790;9.198;2023-07-16T07:43:24;91.50;;;58.63;;
13083;SDS011;6608;48.790;9.198;2023-07-16T07:45:52;83.17;;;57.57;;
13083;SDS011;6608;48.790;9.198;2023-07-16T07:48:18;85.20;;;58.03;;
13083;SDS011;6608;48.790;9.198;2023-07-16T07:50:46;83.83;;;57.70;;
13083;SDS011;6608;48.790;9.198;2023-07-16T07:53:12;83.40;;;57.90;;
13083;SDS011;6608;48.790;9.198;2023-07-16T07:55:40;88.37;;;58.27;;
13083;SDS011;6608;48.790;9.198;2023-07-16T07:58:07;84.00;;;58.23;;
13083;SDS011;6608;48.790;9.198;2023-07-16T08:00:33;84.10;;;58.03;;
13083;SDS011;6608;48.790;9.198;2023-07-16T08:03:01;87.50;;;57.80;;
13083;SDS011;6608;48.790;9.198;2023-07-16T08:05:27;84.70;;;57.67;;
13083;SDS011;6608;48.790;9.198;2023-07-16T08:07:54;83.60;;;57.70;;
13083;SDS011;6608;48.790;9.198;2023-07-16T08:10:20;87.23;;;58.00;;
13083;SDS011;6608;48.790;9.198;2023-07-16T08:12:47;94.67;;;59.17;;
13083;SDS011;6608;48.790;9.198;2023-07-16T08:15:13;91.43;;;58.43;;
13083;SDS011;6608;48.790;9.198;2023-07-16T08:17:40;87.50;;;58.43;;
13083;SDS011;6608;48.790;9.198;2023-07-16T08:20:09;85.23;;;58.23;;
13083;SDS011;6608;48.790;9.198;2023-07-16T08:22:35;88.33;;;58.70;;
13083;SDS011;6608;48.790;9.198;2023-07-16T08:25:02;85.70;;;57.83;;
13083;SDS011;6608;48.790;9.198;2023-07-16T08:27:28;88.10;;;58.17;;
13083;SDS011;6608;48.790;9.198;2023-07-16T08:29:55;82.47;;;57.13;;
13083;SDS011;6608;48.790;9.198;2023-07-16T08:32:21;81.73;;;57.77;;
13083;SDS011;6608;48.790;9.198;2023-07-16T08:34:48;85.13;;;57.97;;
13083;SDS011;6608;48.790;9.198;2023-07-16T08:37:16;81.23;;;57.60;;
13083;SDS011;6608;48.790;9.198;2023-07-16T08:39:42;83.80;;;57.90;;
13083;SDS011;6608;48.790;9.198;2023-07-16T08:42:09;82.37;;;57.70;;
13083;SDS011;6608;48.790;9.198;2023-07-16T08:44:36;85.13;;;58.33;;
13083;SDS011;6608;48.790;9.198;2023-07-16T08:47:02;83.13;;;58.57;;
13083;SDS011;6608;48.790;9.198;2023-07-16T08:49:31;82.23;;;58.13;;
13083;SDS011;6608;48.790;9.198;2023-07-16T08:52:00;81.97;;;58.27;;
13083;SDS011;6608;48.790;9.198;2023-07-16T08:54:28;83.97;;;58.83;;
13083;SDS011;6608;48.790;9.198;2023-07-16T08:56:54;87.23;;;59.47;;
13083;SDS011;6608;48.790;9.198;2023-07-16T08:59:22;85.33;;;59.80;;
13083;SDS011;6608;48.790;9.198;2023-07-16T09:01:48;85.70;;;60.10;;
13083;SDS011;6608;48.790;9.198;2023-07-16T09:04:15;86.20;;;60.03;;
13083;SDS011;6608;48.790;9.198;2023-07-16T09:06:41;87.73;;;60.33;;
13083;SDS011;6608;48.790;9.198;2023-07-16T09:09:08;85.87;;;59.60;;
13083;SDS011;6608;48.790;9.198;2023-07-16T09:11:35;84.43;;;59.90;;
13083;SDS011;6608;48.790;9.198;2023-07-16T09:14:02;85.85;;;60.33;;
13083;SDS011;6608;48.790;9.198;2023-07-16T09:16:32;86.80;;;61.05;;
13083;SDS011;6608;48.790;9.198;2023-07-16T09:19:04;85.40;;;60.45;;
13083;SDS011;6608;48.790;9.198;2023-07-16T09:21:31;86.57;;;61.30;;
13083;SDS011;6608;48.790;9.198;2023-07-16T09:23:59;88.15;;;61.05;;
13083;SDS011;6608;48.790;9.198;2023-07-16T09:26:25;87.40;;;62.33;;
13083;SDS011;6608;48.790;9.198;2023-07-16T09:28:53;89.88;;;61.85;;
13083;SDS011;6608;48.790;9.198;2023-07-16T09:31:19;93.65;;;63.22;;
13083;SDS011;6608;48.790;9.198;2023-07-16T09:33:46;92.28;;;62.58;;
13083;SDS011;6608;48.790;9.198;2023-07-16T09:36:13;97.72;;;62.83;;
13083;SDS011;6608;48.790;9.198;2023-07-16T09:38:39;102.10;;;63.63;;
13083;SDS011;6608;48.790;9.198;2023-07-16T09:41:06;101.07;;;63.20;;
13083;SDS011;6608;48.790;9.198;2023-07-16T09:43:33;93.93;;;61.83;;
13083;SDS011;6608;48.790;9.198;2023-07-16T09:46:01;107.75;;;63.50;;
13083;SDS011;6608;48.790;9.198;2023-07-16T09:48:27;97.22;;;62.15;;
13083;SDS011;6608;48.790;9.198;2023-07-16T09:50:54;88.97;;;60.95;;
13083;SDS011;6608;48.790;9.198;2023-07-16T09:53:23;92.95;;;61.40;;
13083;SDS011;6608;48.790;9.198;2023-07-16T09:55:49;102.75;;;64.07;;
13083;SDS011;6608;48.790;9.198;2023-07-16T09:58:18;101.18;;;63.38;;
13083;SDS011;6608;48.790;9.198;2023-07-16T10:00:45;89.97;;;61.90;;
13083;SDS011;6608;48.790;9.198;2023-07-16T10:03:14;93.18;;;62.47;;
13083;SDS011;6608;48.790;9.198;2023-07-16T10:05:41;92.38;;;62.35;;
13083;SDS011;6608;48.790;9.198;2023-07-16T10:08:15;92.95;;;62.72;;
13083;SDS011;6608;48.790;9.198;2023-07-16T10:10:42;95.53;;;63.13;;
13083;SDS011;6608;48.790;9.198;2023-07-16T10:13:11;96.22;;;63.15;;
13083;SDS011;6608;48.790;9.198;2023-07-16T10:15:38;117.78;;;66.68;;
13083;SDS011;6608;48.790;9.198;2023-07-16T10:18:04;108.45;;;65.32;;
13083;SDS011;6608;48.790;9.198;2023-07-16T10:20:34;91.82;;;62.92;;
13083;SDS011;6608;48.790;9.198;2023-07-16T10:23:10;92.65;;;63.17;;
13083;SDS011;6608;48.790;9.198;2023-07-16T10:25:38;94.03;;;63.58;;
13083;SDS011;6608;48.790;9.198;2023-07-16T10:28:04;100.20;;;65.00;;
13083;SDS011;6608;48.790;9.198;2023-07-16T10:30:31;106.22;;;65.65;;
13083;SDS011;6608;48.790;9.198;2023-07-16T10:32:57;113.97;;;66.70;;
13083;SDS011;6608;48.790;9.198;2023-07-16T10:35:25;98.60;;;64.43;;
13083;SDS011;6608;48.790;9.198;2023-07-16T10:37:54;111.63;;;65.90;;
13083;SDS011;6608;48.790;9.198;2023-07-16T10:40:20;120.45;;;68.15;;
13083;SDS011;6608;48.790;9.198;2023-07-16T10:42:46;99.82;;;64.57;;
13083;SDS011;6608;48.790;9.198;2023-07-16T10:45:13;105.25;;;65.80;;
13083;SDS011;6608;48.790;9.198;2023-07-16T10:47:40;97.88;;;63.13;;
13083;SDS011;6608;48.790;9.198;2023-07-16T10:50:07;95.85;;;64.00;;
13083;SDS011;6608;48.790;9.198;2023-07-16T10:52:36;93.35;;;63.42;;
13083;SDS011;6608;48.790;9.198;2023-07-16T10:55:05;93.82;;;63.42;;
13083;SDS011;6608;48.790;9.198;2023-07-16T10:57:31;97.53;;;63.47;;
13083;SDS011;6608;48.790;9.198;2023-07-16T10:59:58;110.20;;;65.25;;
13083;SDS011;6608;48.790;9.198;2023-07-16T11:02:25;110.28;;;66.13;;
13083;SDS011;6608;48.790;9.198;2023-07-16T11:04:52;97.10;;;62.90;;
13083;SDS011;6608;48.790;9.198;2023-07-16T11:07:19;106.25;;;65.07;;
13083;SDS011;6608;48.790;9.198;2023-07-16T11:09:46;92.78;;;61.95;;
13083;SDS011;6608;48.790;9.198;2023-07-16T11:12:15;94.82;;;62.70;;
13083;SDS011;6608;48.790;9.198;2023-07-16T11:14:43;109.53;;;65.05;;
13083;SDS011;6608;48.790;9.198;2023-07-16T11:17:10;105.82;;;64.45;;
13083;SDS011;6608;48.790;9.198;2023-07-16T11:19:37;94.43;;;62.08;;
13083;SDS011;6608;48.790;9.198;2023-07-16T11:22:04;111.22;;;65.72;;
13083;SDS011;6608;48.790;9.198;2023-07-16T11:24:40;106.22;;;64.70;;
13083;SDS011;6608;48.790;9.198;2023-07-16T11:27:12;92.78;;;62.63;;
13083;SDS011;6608;48.790;9.198;2023-07-16T11:29:44;92.45;;;61.85;;
13083;SDS011;6608;48.790;9.198;2023-07-16T11:32:10;92.95;;;61.80;;
13083;SDS011;6608;48.790;9.198;2023-07-16T11:34:37;98.57;;;62.42;;
13083;SDS011;6608;48.790;9.198;2023-07-16T11:37:06;102.03;;;63.97;;
13083;SDS011;6608;48.790;9.198;2023-07-16T11:39:33;90.78;;;62.05;;
13083;SDS011;6608;48.790;9.198;2023-07-16T11:42:01;93.80;;;63.15;;
13083;SDS011;6608;48.790;9.198;2023-07-16T11:44:31;89.75;;;61.17;;
13083;SDS011;6608;48.790;9.198;2023-07-16T11:46:59;94.30;;;61.88;;
13083;SDS011;6608;48.790;9.198;2023-07-16T11:49:26;89.32;;;61.30;;
13083;SDS011;6608;48.790;9.198;2023-07-16T11:51:52;96.63;;;62.25;;
13083;SDS011;6608;48.790;9.198;2023-07-16T11:54:18;95.43;;;62.20;;
13083;SDS011;6608;48.790;9.198;2023-07-16T11:56:45;100.50;;;63.17;;
13083;SDS011;6608;48.790;9.198;2023-07-16T11:59:12;94.05;;;62.00;;
13083;SDS011;6608;48.790;9.198;2023-07-16T12:01:39;102.05;;;62.95;;
13083;SDS011;6608;48.790;9.198;2023-07-16T12:04:06;92.63;;;62.63;;
13083;SDS011;6608;48.790;9.198;2023-07-16T12:06:33;96.28;;;62.88;;
13083;SDS011;6608;48.790;9.198;2023-07-16T12:08:59;101.38;;;63.70;;
13083;SDS011;6608;48.790;9.198;2023-07-16T12:11:26;92.57;;;62.05;;
13083;SDS011;6608;48.790;9.198;2023-07-16T12:13:52;103.13;;;63.65;;
13083;SDS011;6608;48.790;9.198;2023-07-16T12:16:18;100.13;;;62.97;;
13083;SDS011;6608;48.790;9.198;2023-07-16T12:18:45;91.47;;;61.28;;
13083;SDS011;6608;48.790;9.198;2023-07-16T12:21:13;91.18;;;62.15;;
13083;SDS011;6608;48.790;9.198;2023-07-16T12:23:39;94.65;;;62.67;;
13083;SDS011;6608;48.790;9.198;2023-07-16T12:26:05;104.18;;;64.05;;
13083;SDS011;6608;48.790;9.198;2023-07-16T12:28:33;101.95;;;65.13;;
13083;SDS011;6608;48.790;9.198;2023-07-16T12:31:00;93.18;;;62.67;;
13083;SDS011;6608;48.790;9.198;2023-07-16T12:33:26;92.60;;;63.65;;
13083;SDS011;6608;48.790;9.198;2023-07-16T12:35:52;102.55;;;64.88;;
13083;SDS011;6608;48.790;9.198;2023-07-16T12:38:20;105.55;;;65.13;;
13083;SDS011;6608;48.790;9.198;2023-07-16T12:40:47;97.63;;;63.45;;
13083;SDS011;6608;48.790;9.198;2023-07-16T12:43:14;124.68;;;68.38;;
13083;SDS011;6608;48.790;9.198;2023-07-16T12:45:40;110.88;;;66.20;;
13083;SDS011;6608;48.790;9.198;2023-07-16T12:48:06;96.43;;;64.03;;
13083;SDS011;6608;48.790;9.198;2023-07-16T12:50:33;90.28;;;62.05;;
13083;SDS011;6608;48.790;9.198;2023-07-16T12:52:59;100.55;;;64.57;;
13083;SDS011;6608;48.790;9.198;2023-07-16T12:55:27;98.95;;;64.10;;
13083;SDS011;6608;48.790;9.198;2023-07-16T12:57:56;111.53;;;66.20;;
13083;SDS011;6608;48.790;9.198;2023-07-16T13:00:22;104.43;;;64.68;;
13083;SDS011;6608;48.790;9.198;2023-07-16T13:02:49;103.78;;;64.57;;
13083;SDS011;6608;48.790;9.198;2023-07-16T13:05:15;116.90;;;66.70;;
13083;SDS011;6608;48.790;9.198;2023-07-16T13:07:41;92.05;;;62.17;;
13083;SDS011;6608;48.790;9.198;2023-07-16T13:10:08;94.82;;;62.60;;
13083;SDS011;6608;48.790;9.198;2023-07-16T13:12:37;94.65;;;62.70;;
13083;SDS011;6608;48.790;9.198;2023-07-16T13:15:03;91.82;;;62.33;;
13083;SDS011;6608;48.790;9.198;2023-07-16T13:17:30;106.82;;;64.88;;
13083;SDS011;6608;48.790;9.198;2023-07-16T13:19:56;107.03;;;64.60;;
13083;SDS011;6608;48.790;9.198;2023-07-16T13:22:23;109.93;;;64.93;;
13083;SDS011;6608;48.790;9.198;2023-07-16T13:24:49;103.47;;;64.40;;
13083;SDS011;6608;48.790;9.198;2023-07-16T13:27:19;92.75;;;61.97;;
13083;SDS011;6608;48.790;9.198;2023-07-16T13:29:47;94.05;;;62.10;;
13083;SDS011;6608;48.790;9.198;2023-07-16T13:32:14;96.00;;;63.35;;
13083;SDS011;6608;48.790;9.198;2023-07-16T13:34:40;115.47;;;66.07;;
13083;SDS011;6608;48.790;9.198;2023-07-16T13:37:06;96.90;;;63.05;;
13083;SDS011;6608;48.790;9.198;2023-07-16T13:39:33;99.35;;;62.83;;
13083;SDS011;6608;48.790;9.198;2023-07-16T13:41:59;107.93;;;64.30;;
13083;SDS011;6608;48.790;9.198;2023-07-16T13:44:26;100.57;;;63.47;;
13083;SDS011;6608;48.790;9.198;2023-07-16T13:46:53;95.93;;;62.20;;
13083;SDS011;6608;48.790;9.198;2023-07-16T13:49:20;119.07;;;65.80;;
13083;SDS011;6608;48.790;9.198;2023-07-16T13:51:46;99.63;;;63.05;;
13083;SDS011;6608;48.790;9.198;2023-07-16T13:54:13;102.50;;;63.00;;
13083;SDS011;6608;48.790;9.198;2023-07-16T13:56:39;93.55;;;61.70;;
13083;SDS011;6608;48.790;9.198;2023-07-16T13:59:06;95.85;;;62.75;;
13083;SDS011;6608;48.790;9.198;2023-07-16T14:01:32;109.40;;;64.65;;
13083;SDS011;6608;48.790;9.198;2023-07-16T14:04:00;98.10;;;62.33;;
13083;SDS011;6608;48.790;9.198;2023-07-16T14:06:26;111.03;;;65.13;;
13083;SDS011;6608;48.790;9.198;2023-07-16T14:08:53;87.57;;;61.08;;
13083;SDS011;6608;48.790;9.198;2023-07-16T14:11:20;87.35;;;61.03;;
13083;SDS011;6608;48.790;9.198;2023-07-16T14:13:47;88.70;;;61.05;;
13083;SDS011;6608;48.790;9.198;2023-07-16T14:16:16;88.70;;;61.75;;
13083;SDS011;6608;48.790;9.198;2023-07-16T14:18:42;90.30;;;61.53;;
13083;SDS011;6608;48.790;9.198;2023-07-16T14:21:10;92.72;;;62.33;;
13083;SDS011;6608;48.790;9.198;2023-07-16T14:23:36;95.75;;;62.60;;
13083;SDS011;6608;48.790;9.198;2023-07-16T14:26:03;96.50;;;62.28;;
13083;SDS011;6608;48.790;9.198;2023-07-16T14:28:29;97.93;;;62.92;;
13083;SDS011;6608;48.790;9.198;2023-07-16T14:30:56;92.10;;;62.03;;